Latest Weather Observations for Narrabri

IDN60801

Issued at 2:32 pm EST Sunday 24 May 2015 (issued every 30 minutes, with the page automatically refreshed every 10 minutes)

About weather observations | Map of weather stations | Latest weather observations for NSW | Other Formats
Station Details ID: 054038 Name: NARRABRI AIRPORT AWS Lat: -30.32 Lon: 149.83 Height: 229.02 m
Data from the previous 72 hours. | See also: Recent months at Narrabri
Date/Time
EST
Temp
°C
App
Temp
°C
Dew
Point
Rel
Hum
%
Delta-T
°C
Wind Press
QNH
hPa
Press
MSL
hPa
Rain
since 9 am
mm
Dir
 
Spd
km/h
Gust
km/h
Spd
kts
Gust
kts
24/02:30pm 19.6 15.4 5.6 40 6.9 S 17 22 9 12 1028.5 1028.3 0.0
24/02:00pm 19.3 15.5 5.7 41 6.7 S 15 22 8 12 1028.5 1028.3 0.0
24/01:30pm 19.5 16.2 7.9 47 6.0 S 15 20 8 11 1028.6 1028.4 0.0
24/01:00pm 19.1 15.7 7.8 48 5.8 SE 15 22 8 12 1028.7 1028.6 0.0
24/12:30pm 18.7 15.1 8.4 51 5.4 SSE 17 24 9 13 1029.2 1029.1 0.0
24/12:00pm 18.1 14.4 7.8 51 5.3 SSE 17 24 9 13 1029.8 1029.7 0.0
24/11:30am 17.8 14.4 9.2 57 4.5 SSE 17 24 9 13 1030.4 1030.2 0.0
24/11:00am 17.2 13.4 8.9 58 4.3 SSE 19 26 10 14 1030.7 1030.5 0.0
24/10:30am 16.2 12.4 9.2 63 3.7 SSE 19 26 10 14 1030.8 1030.6 0.0
24/10:00am 15.0 11.6 9.1 68 3.0 SSE 17 24 9 13 1030.9 1030.7 0.0
24/09:30am 13.3 9.1 8.2 71 2.6 SE 20 30 11 16 1030.8 1030.6 0.0
24/09:00am 12.0 8.0 8.1 77 1.9 SSE 19 30 10 16 1030.8 1030.6 0.0
24/08:30am 10.4 5.7 7.6 83 1.4 SSE 22 30 12 16 1030.6 1030.4 0.0
24/08:00am 9.2 4.4 7.3 88 0.9 SE 22 32 12 17 1030.4 1030.2 0.0
24/07:30am 8.6 4.2 7.5 93 0.5 SE 20 28 11 15 1030.3 1030.1 0.0
24/07:00am 8.2 4.4 7.6 96 0.3 SE 17 24 9 13 1029.8 1029.7 0.0
24/06:30am 8.2 4.0 7.4 95 0.4 SSE 19 28 10 15 1029.7 1029.6 0.0
24/06:00am 8.6 3.8 7.5 93 0.5 SSE 22 30 12 16 1029.1 1029.0 0.0
24/05:30am 9.0 4.3 7.8 92 0.6 SE 22 30 12 16 1028.7 1028.6 0.0
24/05:00am 9.2 4.5 7.6 90 0.8 SE 22 32 12 17 1028.3 1028.1 0.0
24/04:30am 9.3 4.6 7.7 90 0.8 SE 22 30 12 16 1028.0 1027.8 0.0
24/04:00am 9.5 4.8 7.8 89 0.8 SE 22 28 12 15 1027.9 1027.7 0.0
24/03:30am 9.7 5.4 8.0 89 0.8 SE 20 30 11 16 1027.8 1027.6 0.0
24/03:00am 9.7 5.4 8.0 89 0.8 SE 20 28 11 15 1027.9 1027.7 0.0
24/02:30am 9.7 5.5 8.1 90 0.8 SE 20 28 11 15 1027.9 1027.7 0.0
24/02:00am 10.0 5.5 8.6 91 0.7 SSE 22 32 12 17 1027.8 1027.6 0.0
24/01:30am 9.9 5.3 8.3 90 0.8 SSE 22 30 12 16 1027.8 1027.6 0.0
24/01:00am 10.2 6.1 8.5 89 0.8 SSE 20 28 11 15 1027.9 1027.7 0.0
24/12:30am 10.3 6.4 8.7 90 0.8 SE 19 24 10 13 1027.8 1027.6 0.0
24/12:00am 10.4 6.3 8.8 90 0.8 SSE 20 24 11 13 1028.0 1027.8 0.0
 
Date/Time
EST
Temp
°C
App
Temp
°C
Dew
Point
Rel
Hum
%
Delta-T
°C
Wind Press
QNH
hPa
Press
MSL
hPa
Rain
since 9 am
mm
Dir
 
Spd
km/h
Gust
km/h
Spd
kts
Gust
kts
23/11:30pm 10.5 6.4 8.8 89 0.8 SSE 20 26 11 14 1027.9 1027.7 0.0
23/11:00pm 10.7 6.8 8.8 88 0.9 SSE 19 24 10 13 1028.0 1027.8 0.0
23/10:30pm 11.1 7.7 9.0 87 1.1 SSE 17 22 9 12 1027.9 1027.7 0.0
23/10:00pm 10.8 7.7 8.9 88 0.9 SSE 15 19 8 10 1028.0 1027.8 0.0
23/09:30pm 11.0 8.7 9.1 88 1.0 SSE 11 13 6 7 1028.3 1028.1 0.0
23/09:00pm 11.8 9.1 8.8 82 1.5 SSE 13 17 7 9 1028.0 1027.8 0.0
23/08:30pm 12.7 9.7 9.2 79 1.8 SSE 15 20 8 11 1027.9 1027.7 0.0
23/08:00pm 13.0 9.3 9.4 79 1.8 SSE 19 26 10 14 1027.6 1027.4 0.0
23/07:30pm 13.7 10.0 9.6 76 2.1 SSE 19 26 10 14 1027.3 1027.1 0.0
23/07:00pm 13.9 11.4 9.7 76 2.2 SE 13 20 7 11 1027.1 1026.9 0.0
23/06:30pm 14.5 11.2 9.5 72 2.6 SE 17 22 9 12 1027.0 1026.8 0.0
23/06:00pm 14.9 11.2 9.5 70 2.8 SE 19 28 10 15 1026.7 1026.5 0.0
23/05:30pm 15.4 11.7 9.3 67 3.2 SSE 19 26 10 14 1026.5 1026.3 0.0
23/05:00pm 16.3 12.6 9.5 64 3.6 SSE 19 26 10 14 1026.5 1026.3 0.0
23/04:30pm 17.3 13.5 9.2 59 4.3 SSE 19 32 10 17 1026.2 1026.0 0.0
23/04:00pm 17.9 13.5 9.0 56 4.7 SSE 22 30 12 16 1026.0 1025.8 0.0
23/03:30pm 18.4 14.1 9.2 55 4.9 SSE 22 32 12 17 1025.7 1025.5 0.0
23/03:00pm 18.5 13.7 8.7 53 5.1 SSE 24 33 13 18 1025.7 1025.5 0.0
23/02:30pm 18.6 14.2 9.1 54 5.0 SSE 22 32 12 17 1025.8 1025.6 0.0
23/02:00pm 18.4 14.0 8.9 54 5.0 SSE 22 35 12 19 1025.9 1025.7 0.0
23/01:30pm 18.0 12.7 8.3 53 5.0 SSE 26 37 14 20 1026.0 1025.8 0.0
23/01:00pm 17.7 12.8 8.6 55 4.7 SSE 24 33 13 18 1026.3 1026.1 0.0
23/12:30pm 17.3 12.3 9.5 60 4.1 SSE 26 41 14 22 1026.5 1026.3 0.0
23/12:00pm 16.9 12.5 8.8 59 4.2 SSE 22 32 12 17 1027.0 1026.8 0.0
23/11:30am 15.9 11.4 8.6 62 3.8 SSE 22 32 12 17 1027.5 1027.3 0.0
23/11:00am 15.2 11.4 9.1 67 3.1 SSE 19 28 10 15 1027.7 1027.5 0.0
23/10:30am 14.9 11.0 9.5 70 2.8 SSE 20 28 11 15 1027.9 1027.7 0.0
23/10:00am 13.9 10.0 8.5 70 2.7 SE 19 28 10 15 1028.0 1027.8 0.0
23/09:30am 13.3 9.4 8.6 73 2.4 SSE 19 32 10 17 1028.0 1027.8 0.0
23/09:00am 12.2 8.7 8.7 79 1.8 SSE 17 26 9 14 1027.9 1027.7 0.2
23/08:30am 10.7 8.5 9.5 92 0.6 S 11 17 6 9 1027.8 1027.6 0.2
23/08:00am 9.0 6.3 9.0 100 0.0 S 13 17 7 9 1027.3 1027.1 0.2
23/07:30am 7.6 4.6 7.6 100 0.0 S 13 15 7 8 1026.8 1026.6 0.2
23/07:00am 7.4 5.5 7.4 100 0.0 SSE 7 9 4 5 1026.4 1026.2 0.2
23/06:30am 7.2 4.8 7.2 100 0.0 SSE 9 11 5 6 1026.0 1025.8 0.2
23/06:00am 7.1 5.3 7.1 100 0.0 S 6 7 3 4 1025.6 1025.4 0.2
23/05:30am 7.8 5.9 7.7 99 0.0 SSE 7 9 4 5 1025.1 1025.0 0.2
23/05:00am 7.9 6.0 7.6 98 0.1 SSE 7 11 4 6 1024.7 1024.5 0.2
23/04:30am 8.4 6.8 7.8 96 0.3 SSE 6 9 3 5 1024.3 1024.1 0.2
23/04:00am 8.9 6.4 8.1 95 0.4 SSE 11 13 6 7 1024.0 1023.8 0.2
23/03:30am 9.1 6.2 8.0 93 0.5 SSE 13 17 7 9 1023.9 1023.7 0.2
23/03:00am 9.6 6.6 7.9 89 0.8 SSE 13 19 7 10 1024.0 1023.8 0.2
23/02:30am 10.2 6.5 8.1 87 1.0 SE 17 26 9 14 1023.8 1023.6 0.2
23/02:00am 10.2 6.8 7.8 85 1.2 SE 15 22 8 12 1024.1 1023.9 0.2
23/01:30am 10.4 7.1 8.0 85 1.2 SE 15 22 8 12 1024.2 1024.0 0.2
23/01:00am 10.5 7.1 7.7 83 1.4 SE 15 26 8 14 1024.1 1023.9 0.2
23/12:30am 11.1 7.4 7.8 80 1.6 SSE 17 26 9 14 1024.0 1023.8 0.2
23/12:00am 11.2 7.1 7.7 79 1.7 SSE 19 26 10 14 1024.2 1024.0 0.2
 
Date/Time
EST
Temp
°C
App
Temp
°C
Dew
Point
Rel
Hum
%
Delta-T
°C
Wind Press
QNH
hPa
Press
MSL
hPa
Rain
since 9 am
mm
Dir
 
Spd
km/h
Gust
km/h
Spd
kts
Gust
kts
22/11:30pm 11.5 7.7 7.6 77 1.9 SSE 17 26 9 14 1024.3 1024.1 0.2
22/11:00pm 11.5 8.6 8.2 80 1.6 SSE 13 24 7 13 1024.5 1024.3 0.2
22/10:30pm 11.6 9.0 7.9 78 1.8 SSE 11 13 6 7 1024.4 1024.2 0.2
22/10:00pm 12.9 9.2 8.0 72 2.4 SSE 17 20 9 11 1024.3 1024.1 0.2
22/09:30pm 13.5 10.0 8.8 73 2.4 SSE 17 24 9 13 1024.1 1023.9 0.2
22/09:00pm 13.8 11.3 9.8 77 2.1 SSE 13 19 7 10 1024.0 1023.8 0.2
22/08:30pm 14.3 11.1 9.9 75 2.3 SSE 17 24 9 13 1023.8 1023.6 0.2
22/08:00pm 14.2 11.0 10.0 76 2.2 SSE 17 24 9 13 1023.4 1023.2 0.2
22/07:30pm 14.5 10.9 9.9 74 2.4 SSE 19 26 10 14 1023.1 1022.9 0.2
22/07:00pm 14.6 11.6 10.8 78 2.0 SE 17 26 9 14 1023.0 1022.8 0.2
22/06:30pm 15.6 12.9 10.2 70 2.9 S 15 19 8 10 1022.1 1021.9 0.2
22/06:00pm 15.5 13.9 10.3 71 2.8 S 9 11 5 6 1021.6 1021.4 0.2
22/05:30pm 16.0 13.9 9.7 66 3.3 SSE 11 17 6 9 1021.1 1020.8 0.2
22/05:00pm 16.8 13.7 9.0 60 4.1 SSE 15 20 8 11 1020.7 1020.5 0.2
22/04:30pm 16.9 14.4 9.8 63 3.8 SSW 13 20 7 11 1020.4 1020.2 0.2
22/04:00pm 17.0 14.5 9.7 62 3.9 SSW 13 19 7 10 1020.3 1020.1 0.0
22/03:30pm 17.0 13.7 9.7 62 3.9 S 17 22 9 12 1020.1 1019.9 0.0
22/03:00pm 17.2 13.7 8.9 58 4.3 SSW 17 24 9 13 1019.6 1019.4 0.0
22/02:30pm 16.9 14.9 11.4 70 3.0 WSW 13 17 7 9 1019.5 1019.3 0.0
22/02:00pm 16.4 13.4 10.7 69 3.1 SW 17 22 9 12 1019.1 1018.9 0.0
22/01:30pm 16.2 13.9 10.3 68 3.2 SW 13 19 7 10 1019.0 1018.8 0.0
22/01:00pm 16.7 14.5 10.8 68 3.2 SW 13 20 7 11 1019.0 1018.8 0.0
22/12:30pm 16.0 13.2 9.9 67 3.2 WSW 15 22 8 12 1019.2 1019.0 0.0
22/12:00pm 14.8 11.8 10.8 77 2.1 WSW 17 22 9 12 1019.5 1019.3 0.0
22/11:30am 14.9 12.5 9.9 72 2.6 WSW 13 17 7 9 1019.7 1019.5 0.0
22/11:00am 14.4 11.5 9.8 74 2.4 WSW 15 19 8 10 1019.8 1019.6 0.0
22/10:30am 14.3 11.9 10.1 76 2.2 SW 13 19 7 10 1019.8 1019.6 0.0
22/10:00am 13.6 11.2 10.0 79 1.9 WSW 13 17 7 9 1019.9 1019.7 0.0
22/09:33am 12.7 10.7 11.6 93 0.6 W 13 17 7 9 1019.8 1019.6 0.0
22/09:30am 12.7 10.8 11.8 94 0.5 W 13 17 7 9 1019.8 1019.6 0.0
22/09:00am 12.2 10.4 12.2 100 0.0 WNW 13 17 7 9 1019.5 1019.3 1.6
22/08:30am 12.2 10.4 12.2 100 0.0 WNW 13 17 7 9 1019.3 1019.1 1.6
22/08:00am 11.6 - - - - WNW 13 17 7 9 1019.1 1018.9 1.6
22/07:30am 11.3 - - - - NW 13 15 7 8 1018.8 1018.6 1.6
22/07:00am 11.2 - - - - WNW 13 17 7 9 1018.5 1018.3 1.6
22/06:30am 11.2 - - - - NW 13 15 7 8 1018.1 1017.9 1.6
22/06:00am 11.0 - - - - N 7 9 4 5 1017.9 1017.7 1.6
22/05:30am 10.8 - - - - N 9 11 5 6 1017.5 1017.2 1.6
22/05:06am 10.6 - - - - N 11 15 6 8 1017.4 1017.1 1.6
22/05:00am 10.5 - - - - N 11 13 6 7 1017.4 1017.1 1.6
22/04:49am 10.4 - - - - N 11 13 6 7 1017.4 1017.1 1.6
22/04:30am 10.9 - - - - N 9 11 5 6 1017.5 1017.2 1.6
22/04:05am 10.8 - - - - NNE 9 11 5 6 1017.7 1017.5 1.6
22/04:00am 10.9 - - - - NNE 9 11 5 6 1017.7 1017.5 1.6
22/03:56am 10.9 - - - - NNE 9 11 5 6 1017.7 1017.5 1.6
22/03:30am 10.8 - - - - N 9 13 5 7 1017.9 1017.7 1.6
22/03:00am 10.6 - - - - N 9 13 5 7 1017.9 1017.7 1.6
22/02:51am 10.4 - - - - N 9 13 5 7 1017.9 1017.7 1.6
22/02:34am 10.1 - - - - NNW 9 13 5 7 1017.9 1017.7 1.6
22/02:30am 10.2 - - - - NNW 11 13 6 7 1017.9 1017.7 1.6
22/02:01am 10.8 - - - - NW 13 17 7 9 1018.0 1017.8 1.6
22/02:00am 10.8 - - - - NW 13 17 7 9 1018.1 1017.9 1.6
22/01:30am 11.2 - - - - W 15 20 8 11 1018.3 1018.1 1.6
22/01:00am 11.1 8.6 11.0 99 0.1 WNW 15 20 8 11 1018.4 1018.2 1.6
22/12:30am 11.3 - - - - E 11 17 6 9 1017.6 1017.4 1.6
22/12:00am 11.5 - - - - ENE 15 19 8 10 1018.2 1018.0 1.4
 
Date/Time
EST
Temp
°C
App
Temp
°C
Dew
Point
Rel
Hum
%
Delta-T
°C
Wind Press
QNH
hPa
Press
MSL
hPa
Rain
since 9 am
mm
Dir
 
Spd
km/h
Gust
km/h
Spd
kts
Gust
kts
21/11:30pm 11.1 - - - - ENE 13 15 7 8 1018.7 1018.5 1.4
21/11:00pm 11.4 - - - - N 9 13 5 7 1019.3 1019.1 1.4
21/10:30pm 11.6 - - - - NNW 13 20 7 11 1019.5 1019.3 1.2
21/10:06pm 11.8 - - - - N 15 20 8 11 1019.6 1019.4 0.6
21/10:00pm 11.8 9.1 11.8 100 0.0 NNW 17 22 9 12 1019.5 1019.3 0.4
21/09:53pm 12.0 9.4 12.0 100 0.0 NNW 17 22 9 12 1019.5 1019.3 0.4
21/09:30pm 12.0 11.3 12.0 100 0.0 NW 7 9 4 5 1019.0 1018.8 0.2
21/09:00pm 12.1 11.4 12.1 100 0.0 WSW 7 11 4 6 1018.8 1018.6 0.2
21/08:30pm 12.4 10.4 11.6 95 0.4 SW 13 20 7 11 1018.7 1018.5 0.2
21/08:00pm 13.7 12.4 13.7 100 0.0 NW 13 24 7 13 1018.6 1018.4 0.0
21/07:30pm 13.3 12.6 13.3 100 0.0 NNE 9 11 5 6 1018.4 1018.2 0.0
21/07:00pm 13.8 13.9 13.8 100 0.0 N 6 7 3 4 1018.4 1018.2 0.0
21/06:30pm 14.0 13.6 14.0 100 0.0 N 9 11 5 6 1018.2 1018.0 0.0
21/06:00pm 14.5 13.4 14.2 98 0.2 NW 13 15 7 8 1018.2 1018.0 0.0
21/05:30pm 14.9 13.8 14.3 96 0.3 NW 13 17 7 9 1018.1 1017.9 0.0
21/05:00pm 15.4 13.9 13.1 86 1.3 NW 13 17 7 9 1017.8 1017.6 0.0
21/04:30pm 15.9 14.3 12.8 82 1.7 NNW 13 17 7 9 1017.7 1017.5 0.0
21/04:00pm 16.5 15.3 12.8 79 2.1 NW 11 15 6 8 1017.7 1017.5 0.0
21/03:30pm 16.6 15.6 12.4 76 2.3 WSW 9 13 5 7 1017.9 1017.7 0.0
21/03:00pm 16.8 15.9 12.7 77 2.3 WSW 9 13 5 7 1017.9 1017.7 0.0

Other Formats:

Comma delimited format used in spreadsheet applications
http://www.bom.gov.au/fwo/IDN60801/IDN60801.95734.axf

JavaScript Object Notation format (JSON) in row-major order
http://www.bom.gov.au/fwo/IDN60801/IDN60801.95734.json